Time;durP1;ratioP1;P1;durP2;ratioP2;P2;SDS_P1;SDS_P2;PMS_P1;PMS_P2;Temp;Humidity;BMP_temperature;BMP_pressure;BME280_temperature;BME280_humidity;BME280_pressure;Samples;Min_cycle;Max_cycle;Signal;HPM_P1;HPM_P2
2024/04/13 00:01:20;;;;;;;3.50;1.23;;;14.00;99.90;14.00;101650.00;;;;5308503;26;84085;-67
2024/04/13 00:03:47;;;;;;;1.75;1.10;;;14.00;99.90;14.00;101659.00;;;;5309975;26;115398;-67
2024/04/13 00:06:12;;;;;;;1.43;1.10;;;14.00;99.90;13.90;101664.00;;;;5310345;26;86295;-67
2024/04/13 00:08:41;;;;;;;2.03;1.80;;;14.00;99.90;13.90;101671.00;;;;5307179;26;106695;-67
2024/04/13 00:11:08;;;;;;;1.52;1.30;;;13.90;99.90;13.90;101676.00;;;;5311130;26;84683;-66
2024/04/13 00:13:36;;;;;;;2.78;1.75;;;13.90;99.90;13.80;101657.00;;;;5308746;26;85823;-67
2024/04/13 00:16:02;;;;;;;2.17;1.33;;;13.80;99.90;13.80;101657.00;;;;5307525;26;85303;-67
2024/04/13 00:18:32;;;;;;;3.27;2.30;;;13.80;99.90;13.70;101650.00;;;;5308433;26;101189;-67
2024/04/13 00:20:58;;;;;;;1.58;1.48;;;13.70;99.90;13.60;101650.00;;;;5310686;26;85011;-66
2024/04/13 00:23:24;;;;;;;6.57;1.65;;;13.70;99.90;13.60;101645.00;;;;5314491;26;85427;-67
2024/04/13 00:25:51;;;;;;;2.47;1.75;;;13.60;99.90;13.60;101648.00;;;;5310341;26;86058;-66
2024/04/13 00:28:18;;;;;;;3.53;1.87;;;13.60;99.90;13.50;101646.00;;;;5313551;26;84568;-67
2024/04/13 00:30:44;;;;;;;3.00;2.00;;;13.60;99.90;13.50;101644.00;;;;5307582;26;95328;-67
2024/04/13 00:33:10;;;;;;;2.70;1.83;;;13.50;99.90;13.40;101648.00;;;;5307418;26;86591;-67
2024/04/13 00:35:36;;;;;;;3.33;1.37;;;13.50;99.90;13.40;101656.00;;;;5310138;26;116861;-66
2024/04/13 00:38:04;;;;;;;3.57;1.70;;;13.40;99.90;13.40;101661.00;;;;5312592;26;84621;-67
2024/04/13 00:40:29;;;;;;;2.22;1.92;;;13.40;99.90;13.30;101665.00;;;;5314688;26;91137;-67
2024/04/13 00:43:10;;;;;;;2.33;1.07;;;13.30;99.90;13.30;101647.00;;;;5306501;26;101178;-67
2024/04/13 00:45:46;;;;;;;1.37;1.27;;;13.30;99.90;13.30;101649.00;;;;5310627;26;85044;-66
2024/04/13 00:48:16;;;;;;;3.40;2.07;;;13.30;99.90;13.30;101664.00;;;;5307061;26;84970;-66
2024/04/13 00:50:47;;;;;;;2.10;1.70;;;13.20;99.90;13.20;101660.00;;;;5305865;26;83580;-66
2024/04/13 00:53:16;;;;;;;3.07;1.93;;;13.30;99.90;13.20;101651.00;;;;5305869;26;85482;-67
2024/04/13 00:55:44;;;;;;;1.80;1.27;;;13.20;99.90;13.20;101656.00;;;;5364842;25;84400;-66
2024/04/13 00:58:13;;;;;;;2.07;1.83;;;13.20;99.90;13.10;101653.00;;;;5313422;26;87210;-67
2024/04/13 01:00:40;;;;;;;3.50;2.00;;;13.20;99.90;13.10;101648.00;;;;5307263;26;105239;-67
2024/04/13 01:03:08;;;;;;;1.50;1.27;;;13.10;99.90;13.10;101659.00;;;;5309771;26;84918;-68
2024/04/13 01:05:34;;;;;;;1.53;1.43;;;13.10;99.90;13.10;101660.00;;;;5313561;26;84549;-67
2024/04/13 01:08:01;;;;;;;6.97;1.73;;;13.10;99.90;13.00;101665.00;;;;5306423;26;84631;-67
2024/04/13 01:10:27;;;;;;;3.03;1.47;;;13.00;99.90;13.00;101655.00;;;;5312198;26;89203;-67
2024/04/13 01:12:53;;;;;;;3.07;1.80;;;13.00;99.90;13.00;101661.00;;;;5307473;26;105555;-67
2024/04/13 01:15:19;;;;;;;1.87;1.27;;;13.00;99.90;13.00;101667.00;;;;5309651;26;100214;-67
2024/04/13 01:17:46;;;;;;;2.27;1.57;;;13.00;99.90;12.90;101662.00;;;;5311995;26;109113;-66
2024/04/13 01:20:13;;;;;;;3.83;1.97;;;13.00;99.90;12.90;101656.00;;;;5311510;26;84612;-67
2024/04/13 01:22:43;;;;;;;1.50;1.40;;;13.00;99.90;12.90;101661.00;;;;5308957;26;100107;-66
2024/04/13 01:25:09;;;;;;;4.90;1.97;;;12.90;99.90;12.90;101659.00;;;;5305083;26;84144;-67
2024/04/13 01:27:36;;;;;;;2.10;1.20;;;12.90;99.90;12.90;101657.00;;;;5303481;26;84475;-67
2024/04/13 01:30:03;;;;;;;1.20;1.10;;;12.90;99.90;12.90;101644.00;;;;5309447;26;84704;-67
2024/04/13 01:32:30;;;;;;;1.17;1.17;;;12.90;99.90;12.90;101649.00;;;;5305908;26;84417;-66
2024/04/13 01:35:10;;;;;;;1.53;1.43;;;12.90;99.90;12.90;101636.00;;;;5312431;26;85457;-67
2024/04/13 01:37:40;;;;;;;1.77;1.27;;;12.90;99.90;12.90;101641.00;;;;5313994;26;84582;-67
2024/04/13 01:40:08;;;;;;;1.87;1.47;;;12.80;99.90;12.90;101631.00;;;;5303549;26;83477;-67
2024/04/13 01:42:37;;;;;;;2.57;1.20;;;12.90;99.90;12.90;101643.00;;;;5310256;26;84936;-67
2024/04/13 01:45:04;;;;;;;1.10;0.97;;;12.90;99.90;12.90;101628.00;;;;5305409;26;84596;-67
2024/04/13 01:47:30;;;;;;;3.17;1.23;;;12.90;99.90;12.90;101630.00;;;;5307904;26;98392;-67
2024/04/13 01:49:55;;;;;;;2.20;1.80;;;12.90;99.90;12.90;101626.00;;;;5312116;26;105548;-66
2024/04/13 01:52:21;;;;;;;1.83;1.47;;;12.90;99.90;12.80;101627.00;;;;5307711;26;113977;-66
2024/04/13 01:54:47;;;;;;;11.20;1.57;;;12.90;99.90;12.80;101616.00;;;;5310897;26;98650;-66
2024/04/13 01:57:13;;;;;;;1.57;1.47;;;12.90;99.90;12.80;101631.00;;;;5310400;26;97726;-66
2024/04/13 01:59:41;;;;;;;1.77;1.20;;;12.90;99.90;12.80;101628.00;;;;5308021;26;105557;-66
2024/04/13 02:02:07;;;;;;;0.90;0.77;;;12.80;99.90;12.80;101617.00;;;;5306572;26;85654;-66
2024/04/13 02:04:33;;;;;;;2.73;1.70;;;12.80;99.90;12.80;101634.00;;;;5307141;26;88095;-66
2024/04/13 02:06:58;;;;;;;1.77;1.50;;;12.80;99.90;12.70;101631.00;;;;5306345;26;108470;-66
2024/04/13 02:09:24;;;;;;;2.27;1.53;;;12.80;99.90;12.70;101628.00;;;;5311315;26;84400;-66
2024/04/13 02:11:50;;;;;;;1.07;0.97;;;12.70;99.90;12.70;101628.00;;;;5306266;26;116493;-66
2024/04/13 02:14:15;;;;;;;1.77;1.67;;;12.70;99.90;12.70;101624.00;;;;5310456;26;115933;-66
2024/04/13 02:16:41;;;;;;;1.53;1.30;;;12.70;99.90;12.60;101631.00;;;;5308921;26;106860;-65
2024/04/13 02:19:07;;;;;;;1.60;1.50;;;12.70;99.90;12.60;101626.00;;;;5306910;26;106205;-67
2024/04/13 02:21:33;;;;;;;2.77;1.73;;;11.70;99.90;12.60;101619.00;;;;5308925;26;84790;-66
2024/04/13 02:23:58;;;;;;;1.33;0.90;;;12.60;99.90;12.60;101624.00;;;;5309998;26;116181;-66
2024/04/13 02:26:24;;;;;;;1.83;1.60;;;12.60;99.90;12.50;101631.00;;;;5306650;26;107776;-67
2024/04/13 02:28:51;;;;;;;1.67;1.57;;;12.60;99.90;12.50;101626.00;;;;5305191;26;83706;-66
2024/04/13 02:31:17;;;;;;;1.90;1.50;;;12.60;99.90;12.50;101625.00;;;;5304149;26;85545;-66
2024/04/13 02:33:43;;;;;;;1.03;1.00;;;12.50;99.90;12.50;101616.00;;;;5305310;26;85842;-65
2024/04/13 02:36:09;;;;;;;1.53;1.23;;;12.50;99.90;12.40;101630.00;;;;5313411;26;108391;-66
2024/04/13 02:38:34;;;;;;;3.47;1.33;;;12.50;99.90;12.40;101631.00;;;;5288548;26;106962;-66
2024/04/13 02:41:03;;;;;;;1.83;1.20;;;12.50;99.90;12.40;101626.00;;;;5306684;26;115210;-66
2024/04/13 02:43:34;;;;;;;1.87;1.73;;;12.40;99.90;12.40;101618.00;;;;5312005;26;84595;-66
2024/04/13 02:46:07;;;;;;;2.90;1.83;;;12.40;99.90;12.40;101632.00;;;;5308496;26;84099;-67
2024/04/13 02:48:33;;;;;;;3.50;1.40;;;12.40;99.90;12.40;101636.00;;;;5312099;26;84250;-66
2024/04/13 02:50:59;;;;;;;1.20;1.17;;;12.40;99.90;12.40;101632.00;;;;5310835;26;108167;-66
2024/04/13 02:53:24;;;;;;;1.30;1.07;;;12.40;99.90;12.40;101639.00;;;;5311368;26;114022;-66
2024/04/13 02:55:50;;;;;;;2.03;1.37;;;12.40;99.90;12.30;101619.00;;;;5310852;26;107452;-66
2024/04/13 02:58:17;;;;;;;1.40;1.23;;;12.40;99.90;12.30;101624.00;;;;5309376;26;85835;-67
2024/04/13 03:00:54;;;;;;;1.63;1.30;;;12.40;99.90;12.30;101625.00;;;;5313451;26;96566;-66
2024/04/13 03:03:20;;;;;;;1.70;1.40;;;12.30;99.90;12.30;101617.00;;;;5313450;26;84484;-66
2024/04/13 03:05:45;;;;;;;1.37;1.10;;;12.30;99.90;12.30;101619.00;;;;5308799;26;84612;-66
2024/04/13 03:08:11;;;;;;;1.50;1.17;;;12.30;99.90;12.30;101621.00;;;;5311739;26;95546;-67
2024/04/13 03:10:37;;;;;;;1.30;1.20;;;12.30;99.90;12.30;101621.00;;;;5305344;26;96520;-66
2024/04/13 03:13:03;;;;;;;1.30;1.20;;;12.30;99.90;12.30;101619.00;;;;5306043;26;92023;-68
2024/04/13 03:15:30;;;;;;;1.67;1.20;;;12.30;99.90;12.40;101630.00;;;;5315135;26;84993;-66
2024/04/13 03:17:56;;;;;;;1.90;1.43;;;12.40;99.90;12.40;101633.00;;;;5313031;26;106305;-66
2024/04/13 03:20:21;;;;;;;2.17;1.30;;;12.40;99.90;12.50;101634.00;;;;5312498;26;114661;-66
2024/04/13 03:22:47;;;;;;;2.03;1.40;;;12.50;99.90;12.50;101619.00;;;;5305798;26;113889;-67
2024/04/13 03:25:13;;;;;;;2.87;1.53;;;12.50;99.90;12.60;101623.00;;;;5304387;26;107048;-67
2024/04/13 03:27:38;;;;;;;4.53;2.00;;;12.60;99.90;12.60;101626.00;;;;5305193;26;106416;-66
2024/04/13 03:30:07;;;;;;;2.80;2.00;;;12.60;99.90;12.60;101616.00;;;;5306687;26;92487;-67
2024/04/13 03:32:33;;;;;;;1.43;1.33;;;12.60;99.90;12.60;101615.00;;;;5317121;26;84876;-67
2024/04/13 03:34:58;;;;;;;1.20;1.10;;;12.60;99.90;12.60;101622.00;;;;5305817;26;99782;-67
2024/04/13 03:37:24;;;;;;;3.33;1.40;;;12.70;99.90;12.60;101624.00;;;;5307220;26;106444;-66
2024/04/13 03:39:50;;;;;;;1.73;1.47;;;12.60;99.90;12.60;101622.00;;;;5311064;26;111835;-67
2024/04/13 03:42:15;;;;;;;2.10;1.10;;;12.60;99.90;12.60;101622.00;;;;5305583;26;113493;-65
2024/04/13 03:44:41;;;;;;;2.83;1.43;;;12.80;99.90;12.60;101616.00;;;;5308664;26;107800;-66
2024/04/13 03:47:07;;;;;;;1.53;0.90;;;12.60;99.90;12.60;101597.00;;;;5304884;26;84281;-67
2024/04/13 03:49:33;;;;;;;1.87;1.30;;;12.60;99.90;12.60;101600.00;;;;5306809;26;85582;-65
2024/04/13 03:51:59;;;;;;;1.20;0.93;;;12.60;99.90;12.60;101598.00;;;;5308404;26;115769;-66
2024/04/13 03:54:25;;;;;;;1.23;0.77;;;12.60;99.90;12.50;101599.00;;;;5306299;26;107217;-66
2024/04/13 03:56:50;;;;;;;1.37;1.23;;;12.60;99.90;12.50;101602.00;;;;5318965;25;84392;-66
2024/04/13 03:59:16;;;;;;;2.33;1.17;;;12.50;99.90;12.50;101595.00;;;;5306019;26;114199;-66
2024/04/13 04:01:42;;;;;;;2.13;1.57;;;12.50;99.90;12.50;101594.00;;;;5306255;26;96523;-65
2024/04/13 04:04:07;;;;;;;1.20;1.00;;;12.50;99.90;12.40;101594.00;;;;5304604;26;108828;-66
2024/04/13 04:06:33;;;;;;;2.53;1.73;;;12.50;99.90;12.40;101589.00;;;;5307231;26;105921;-66
2024/04/13 04:09:00;;;;;;;1.27;1.03;;;12.40;99.90;12.40;101589.00;;;;5307456;26;115079;-66
2024/04/13 04:11:27;;;;;;;0.93;0.87;;;12.40;99.90;12.40;101589.00;;;;5306257;26;85284;-67
2024/04/13 04:13:53;;;;;;;2.83;1.63;;;12.40;99.90;12.40;101592.00;;;;5307663;26;86598;-65
2024/04/13 04:16:18;;;;;;;1.73;1.00;;;12.40;99.90;12.40;101597.00;;;;5314433;26;97428;-67
2024/04/13 04:18:44;;;;;;;1.20;1.10;;;12.40;99.90;12.40;101603.00;;;;5316403;26;85189;-67
2024/04/13 04:21:10;;;;;;;1.33;1.20;;;12.40;99.90;12.40;101598.00;;;;5307468;26;113786;-67
2024/04/13 04:23:35;;;;;;;1.47;1.30;;;12.40;99.90;12.40;101595.00;;;;5308398;26;108593;-68
2024/04/13 04:26:02;;;;;;;1.50;1.23;;;12.40;99.90;12.40;101597.00;;;;5307971;26;106369;-68
2024/04/13 04:28:27;;;;;;;1.63;1.23;;;12.40;99.90;12.40;101598.00;;;;5304787;26;85166;-67
2024/04/13 04:30:53;;;;;;;2.30;1.40;;;12.40;99.90;12.50;101598.00;;;;5311278;26;115562;-66
2024/04/13 04:33:19;;;;;;;2.17;0.80;;;12.40;99.90;12.50;101604.00;;;;5305157;26;107837;-65
2024/04/13 04:35:45;;;;;;;1.10;0.87;;;12.50;99.90;12.60;101592.00;;;;5309396;26;84820;-65
2024/04/13 04:38:12;;;;;;;2.13;1.50;;;12.60;99.90;12.70;101590.00;;;;5308044;26;86011;-67
2024/04/13 04:40:39;;;;;;;3.07;1.53;;;12.60;99.90;12.70;101585.00;;;;5302878;26;86962;-66
2024/04/13 04:43:05;;;;;;;1.20;1.10;;;12.70;99.90;12.80;101594.00;;;;5301121;26;98741;-66
2024/04/13 04:45:31;;;;;;;1.10;1.03;;;12.70;99.90;12.90;101593.00;;;;5300306;26;105970;-66
2024/04/13 04:47:57;;;;;;;5.50;1.30;;;12.80;99.90;12.90;101590.00;;;;5303737;26;85421;-67
2024/04/13 04:50:23;;;;;;;1.47;0.90;;;12.90;99.90;13.00;101595.00;;;;5310866;26;114363;-67
2024/04/13 04:52:49;;;;;;;3.33;1.10;;;12.90;99.90;13.00;101588.00;;;;5303342;26;108818;-67
2024/04/13 04:55:15;;;;;;;2.20;1.50;;;13.00;99.90;13.00;101594.00;;;;5307873;26;83773;-67
2024/04/13 04:57:41;;;;;;;0.97;0.97;;;13.00;99.90;13.00;101607.00;;;;5308555;26;113243;-67
2024/04/13 05:00:13;;;;;;;2.33;1.20;;;13.00;99.90;13.10;101594.00;;;;5304918;26;85061;-68
2024/04/13 05:02:41;;;;;;;2.23;1.27;;;13.00;99.90;13.10;101602.00;;;;5303310;26;85558;-67
2024/04/13 05:05:08;;;;;;;0.97;0.90;;;13.00;99.90;13.10;101604.00;;;;5303476;26;84523;-68
2024/04/13 05:07:34;;;;;;;2.33;1.37;;;13.10;99.90;13.10;101614.00;;;;5299260;26;84280;-67
2024/04/13 05:10:00;;;;;;;1.50;1.17;;;13.10;99.90;13.20;101608.00;;;;5309015;26;112812;-67
2024/04/13 05:12:25;;;;;;;2.17;1.20;;;13.20;99.90;13.20;101613.00;;;;5303550;26;109388;-67
2024/04/13 05:14:51;;;;;;;2.63;1.43;;;13.20;99.90;13.30;101625.00;;;;5303853;26;106029;-67
2024/04/13 05:17:17;;;;;;;1.67;1.37;;;13.20;99.90;13.30;101615.00;;;;5308235;26;114463;-67
2024/04/13 05:19:43;;;;;;;0.67;0.67;;;13.30;99.90;13.40;101620.00;;;;5304157;26;115280;-66
2024/04/13 05:22:09;;;;;;;3.00;0.87;;;13.30;99.90;13.40;101622.00;;;;5297075;26;84457;-67
2024/04/13 05:24:35;;;;;;;4.20;1.07;;;13.40;99.90;13.50;101614.00;;;;5299245;26;92364;-67
2024/04/13 05:27:05;;;;;;;1.20;1.10;;;13.50;99.90;13.60;101624.00;;;;5297388;26;86538;-67
2024/04/13 05:29:34;;;;;;;1.48;0.93;;;13.50;99.90;13.60;101614.00;;;;5304208;26;86788;-67
2024/04/13 05:31:59;;;;;;;1.57;1.10;;;13.60;99.90;13.70;101622.00;;;;5297791;26;85438;-67
2024/04/13 05:34:25;;;;;;;1.30;1.20;;;13.70;99.90;13.70;101629.00;;;;5276158;26;84712;-67
2024/04/13 05:36:51;;;;;;;1.77;1.20;;;13.70;99.90;13.80;101633.00;;;;5307085;26;85774;-67
2024/04/13 05:39:17;;;;;;;2.17;1.27;;;13.70;99.90;13.90;101640.00;;;;5300584;26;114497;-68
2024/04/13 05:41:42;;;;;;;2.15;1.42;;;13.80;99.90;13.90;101629.00;;;;5306217;26;84402;-67
2024/04/13 05:44:08;;;;;;;1.50;1.27;;;13.80;99.90;13.90;101626.00;;;;5306436;26;104572;-66
2024/04/13 05:46:34;;;;;;;3.50;1.30;;;13.90;99.90;14.00;101621.00;;;;5307178;26;84722;-67
2024/04/13 05:48:59;;;;;;;0.90;0.82;;;13.90;99.90;14.00;101629.00;;;;5308584;26;113152;-66
2024/04/13 05:51:25;;;;;;;3.15;1.20;;;14.00;99.90;14.10;101635.00;;;;5303227;26;110120;-66
2024/04/13 05:53:51;;;;;;;1.13;1.02;;;14.00;99.90;14.10;101645.00;;;;5299658;26;105949;-67
2024/04/13 05:56:17;;;;;;;1.23;1.10;;;14.10;99.90;14.20;101650.00;;;;5303466;26;85397;-67
2024/04/13 05:58:42;;;;;;;1.52;1.27;;;14.20;99.90;14.20;101655.00;;;;5303048;26;113674;-67
2024/04/13 06:01:08;;;;;;;1.00;0.93;;;14.10;99.90;14.30;101658.00;;;;5300125;26;107406;-67
2024/04/13 06:03:34;;;;;;;1.15;1.05;;;14.20;99.90;14.30;101650.00;;;;5312410;26;105009;-65
2024/04/13 06:06:00;;;;;;;0.88;0.88;;;14.30;99.90;14.40;101653.00;;;;5306701;26;106178;-67
2024/04/13 06:08:25;;;;;;;2.10;1.38;;;14.40;99.90;14.60;101653.00;;;;5306442;26;84916;-66
2024/04/13 06:10:52;;;;;;;3.25;1.20;;;14.50;99.90;14.60;101665.00;;;;5314290;26;108417;-67
2024/04/13 06:13:17;;;;;;;2.10;1.13;;;14.50;99.90;14.70;101671.00;;;;5299814;26;84503;-66
2024/04/13 06:15:44;;;;;;;0.57;0.47;;;14.70;99.90;14.80;101664.00;;;;5304670;26;85848;-66
2024/04/13 06:18:10;;;;;;;0.82;0.68;;;14.70;99.90;14.80;101660.00;;;;5305931;26;85343;-65
2024/04/13 06:20:36;;;;;;;1.77;1.13;;;14.80;99.90;14.90;101672.00;;;;5300752;26;84764;-66
2024/04/13 06:23:02;;;;;;;1.63;1.52;;;14.80;99.90;15.00;101658.00;;;;5298863;26;84370;-67
2024/04/13 06:25:28;;;;;;;1.95;0.90;;;14.90;99.90;15.00;101664.00;;;;5304482;26;84935;-66
2024/04/13 06:27:54;;;;;;;1.92;1.48;;;14.90;99.90;15.00;101677.00;;;;5299598;26;113351;-66
2024/04/13 06:30:19;;;;;;;1.30;0.77;;;14.90;99.90;15.10;101680.00;;;;5301116;26;84368;-66
2024/04/13 06:32:45;;;;;;;1.10;1.00;;;15.00;99.90;15.10;101671.00;;;;5304739;26;106495;-66
2024/04/13 06:35:11;;;;;;;1.42;0.90;;;15.00;99.90;15.20;101674.00;;;;5306478;26;109949;-67
2024/04/13 06:37:36;;;;;;;1.52;1.00;;;15.10;99.90;15.30;101666.00;;;;5301843;26;84679;-66
2024/04/13 06:40:06;;;;;;;1.42;1.27;;;15.20;99.90;15.40;101669.00;;;;5304272;26;108475;-66
2024/04/13 06:42:33;;;;;;;1.08;0.80;;;15.30;99.90;15.40;101668.00;;;;5304928;26;84589;-66
2024/04/13 06:45:00;;;;;;;1.48;1.02;;;15.30;99.90;15.50;101670.00;;;;5295467;26;85333;-66
2024/04/13 06:47:26;;;;;;;2.20;0.98;;;15.40;99.90;15.60;101673.00;;;;5300646;26;84367;-65
2024/04/13 06:49:52;;;;;;;2.33;1.40;;;15.50;99.90;15.60;101667.00;;;;5299156;26;84712;-64
2024/04/13 06:52:18;;;;;;;2.33;1.35;;;15.50;99.90;15.70;101664.00;;;;5299949;26;107065;-66
2024/04/13 06:54:44;;;;;;;4.72;1.20;;;15.60;99.90;15.80;101666.00;;;;5307122;26;84745;-66
2024/04/13 06:57:09;;;;;;;2.10;0.93;;;15.70;99.90;15.90;101666.00;;;;5302001;26;114559;-65
2024/04/13 06:59:35;;;;;;;1.25;1.15;;;15.80;99.90;16.00;101659.00;;;;5304762;26;106874;-66
2024/04/13 07:02:01;;;;;;;1.40;1.30;;;15.90;99.90;16.10;101657.00;;;;5305550;26;105452;-66
2024/04/13 07:04:26;;;;;;;1.40;0.90;;;16.00;99.90;16.20;101663.00;;;;5298466;26;115666;-66
2024/04/13 07:06:52;;;;;;;2.45;1.85;;;16.10;99.90;16.30;101661.00;;;;5306692;26;115783;-67
2024/04/13 07:09:20;;;;;;;2.08;1.38;;;16.20;99.90;16.40;101673.00;;;;5306376;26;106037;-66
2024/04/13 07:11:46;;;;;;;1.50;1.40;;;16.30;99.90;16.50;101669.00;;;;5301128;26;84639;-65
2024/04/13 07:14:12;;;;;;;1.20;1.10;;;16.40;99.90;16.60;101665.00;;;;5302474;26;85389;-66
2024/04/13 07:16:37;;;;;;;1.65;1.02;;;16.50;99.90;16.70;101653.00;;;;5331478;25;113935;-66
2024/04/13 07:19:03;;;;;;;2.60;1.15;;;16.60;99.90;16.80;101657.00;;;;5336143;25;84661;-65
2024/04/13 07:21:29;;;;;;;2.30;1.40;;;16.70;99.90;17.00;101646.00;;;;5335656;25;106891;-65
2024/04/13 07:23:54;;;;;;;1.15;0.93;;;16.80;99.90;17.20;101646.00;;;;5341069;25;114803;-66
2024/04/13 07:26:20;;;;;;;1.48;1.10;;;17.00;99.90;17.40;101651.00;;;;5335794;25;115087;-65
2024/04/13 07:28:46;;;;;;;1.60;1.20;;;17.20;99.90;17.60;101637.00;;;;5340065;26;106310;-66
2024/04/13 07:31:11;;;;;;;2.50;1.48;;;17.40;99.90;17.80;101642.00;;;;5341088;25;105392;-67
2024/04/13 07:33:37;;;;;;;1.45;1.15;;;17.70;99.90;18.20;101633.00;;;;5341459;25;114529;-66
2024/04/13 07:36:03;;;;;;;2.22;1.50;;;18.00;99.90;18.30;101631.00;;;;5344132;26;114392;-66
2024/04/13 07:38:29;;;;;;;1.27;1.13;;;18.20;99.90;18.60;101633.00;;;;5345431;25;84545;-66
2024/04/13 07:40:54;;;;;;;0.70;0.70;;;18.40;99.90;18.90;101644.00;;;;5311914;26;84456;-66
2024/04/13 07:43:20;;;;;;;2.38;1.48;;;18.70;99.90;19.10;101639.00;;;;5338731;25;114972;-67
2024/04/13 07:45:49;;;;;;;2.60;1.63;;;19.00;99.90;19.20;101651.00;;;;5338811;25;114232;-66
2024/04/13 07:48:15;;;;;;;1.98;1.42;;;19.20;99.90;19.40;101646.00;;;;5340643;26;85990;-67
2024/04/13 07:50:42;;;;;;;1.60;1.00;;;19.30;99.90;19.60;101635.00;;;;5340775;25;99511;-67
2024/04/13 07:53:08;;;;;;;1.77;1.10;;;19.50;99.90;19.80;101632.00;;;;5336819;25;86825;-67
2024/04/13 07:55:33;;;;;;;2.67;1.42;;;19.60;99.90;20.10;101624.00;;;;5339851;26;85880;-67
2024/04/13 07:57:59;;;;;;;1.15;0.93;;;19.90;99.90;20.40;101633.00;;;;5338677;26;105199;-67
2024/04/13 08:00:25;;;;;;;2.47;1.70;;;20.20;99.90;20.60;101631.00;;;;5339469;26;84620;-67
2024/04/13 08:02:50;;;;;;;3.65;1.70;;;20.50;99.90;20.80;101641.00;;;;5336168;26;114355;-67
2024/04/13 08:05:16;;;;;;;2.97;1.95;;;20.70;99.90;21.00;101633.00;;;;5337856;26;114395;-66
2024/04/13 08:07:42;;;;;;;1.55;1.10;;;20.90;99.30;21.10;101625.00;;;;5337497;26;106160;-67
2024/04/13 08:10:07;;;;;;;2.03;1.58;;;21.00;98.80;21.20;101613.00;;;;5337415;26;106315;-67
2024/04/13 08:12:33;;;;;;;1.52;1.15;;;21.10;98.50;21.40;101615.00;;;;5338598;26;112964;-67
2024/04/13 08:14:59;;;;;;;2.95;1.85;;;21.30;98.10;21.50;101612.00;;;;5335004;25;84837;-66
2024/04/13 08:17:27;;;;;;;2.55;1.58;;;21.40;97.50;21.60;101608.00;;;;5342046;25;86493;-67
2024/04/13 08:19:54;;;;;;;1.77;1.65;;;21.50;96.70;21.70;101623.00;;;;5342569;25;84463;-68
2024/04/13 08:22:20;;;;;;;3.63;1.65;;;21.60;95.80;21.60;101623.00;;;;5362520;25;106940;-67
2024/04/13 08:24:45;;;;;;;2.00;1.75;;;21.60;95.70;21.60;101612.00;;;;5311467;25;114459;-68
2024/04/13 08:27:11;;;;;;;3.10;1.50;;;21.60;95.30;21.60;101620.00;;;;5302864;26;86045;-68
2024/04/13 08:29:37;;;;;;;2.60;1.45;;;21.60;95.10;21.50;101609.00;;;;5304054;26;106184;-67
2024/04/13 08:32:03;;;;;;;1.73;1.17;;;21.50;95.00;21.50;101609.00;;;;5297875;25;100619;-66
2024/04/13 08:34:29;;;;;;;1.17;1.13;;;21.50;95.00;21.40;101612.00;;;;5262587;25;110428;-67
2024/04/13 08:36:54;;;;;;;1.33;1.23;;;21.50;94.90;21.40;101597.00;;;;5307572;25;85982;-66
2024/04/13 08:39:20;;;;;;;2.22;1.58;;;21.40;94.90;21.40;101595.00;;;;5299724;26;106921;-66
2024/04/13 08:42:08;;;;;;;1.25;1.00;;;21.40;95.00;21.60;101595.00;;;;5305033;26;115851;-66
2024/04/13 08:44:34;;;;;;;1.70;0.77;;;21.50;95.20;21.80;101592.00;;;;5304554;26;93206;-67
2024/04/13 08:47:01;;;;;;;1.00;0.88;;;21.60;95.10;22.10;101592.00;;;;5303675;26;107634;-66
2024/04/13 08:49:29;;;;;;;3.50;1.08;;;21.90;94.70;22.40;101595.00;;;;5303411;26;84277;-68
2024/04/13 08:51:56;;;;;;;0.77;0.75;;;22.10;93.30;22.60;101592.00;;;;5297425;25;107326;-67
2024/04/13 08:54:21;;;;;;;2.50;1.08;;;22.40;91.40;22.60;101594.00;;;;5308036;26;84681;-67
2024/04/13 08:56:47;;;;;;;1.88;1.38;;;22.50;91.30;22.60;101593.00;;;;5306625;26;107568;-66
2024/04/13 08:59:14;;;;;;;1.08;0.77;;;22.50;91.50;22.80;101595.00;;;;5304970;26;93370;-67
2024/04/13 09:01:45;;;;;;;1.25;1.02;;;22.70;89.00;22.70;101599.00;;;;5287993;26;112140;-67
2024/04/13 09:04:11;;;;;;;1.67;1.10;;;22.70;87.70;22.70;101594.00;;;;5357132;25;102734;-67
2024/04/13 09:06:36;;;;;;;1.27;1.05;;;22.70;87.20;22.80;101595.00;;;;5304906;26;107508;-67
2024/04/13 09:09:08;;;;;;;0.82;0.68;;;22.70;88.40;23.00;101587.00;;;;5301108;26;105585;-67
2024/04/13 09:11:35;;;;;;;1.10;0.70;;;22.80;87.00;23.10;101595.00;;;;5304140;26;85319;-67
2024/04/13 09:14:05;;;;;;;1.23;1.05;;;22.90;86.50;23.20;101594.00;;;;5304711;26;84973;-66
2024/04/13 09:16:32;;;;;;;2.65;1.00;;;23.00;84.30;23.10;101600.00;;;;5310664;26;84282;-67
2024/04/13 09:18:59;;;;;;;1.00;0.85;;;23.00;82.10;23.10;101600.00;;;;5308517;26;93711;-67
2024/04/13 09:21:30;;;;;;;0.93;0.70;;;23.00;83.60;23.20;101600.00;;;;5313305;26;86982;-66
2024/04/13 09:23:57;;;;;;;0.57;0.57;;;23.10;84.00;23.30;101594.00;;;;5305285;26;85047;-66
2024/04/13 09:26:22;;;;;;;1.20;1.02;;;23.10;83.60;23.40;101597.00;;;;5298312;26;102819;-68
2024/04/13 09:28:49;;;;;;;0.65;0.52;;;23.20;83.80;23.60;101601.00;;;;5301699;26;104946;-67
2024/04/13 09:31:17;;;;;;;2.40;1.35;;;23.40;82.30;23.70;101587.00;;;;5299846;25;86579;-67
2024/04/13 09:33:51;;;;;;;2.42;0.93;;;23.50;79.80;23.60;101590.00;;;;5307773;26;86162;-68
2024/04/13 09:36:35;;;;;;;0.98;0.80;;;23.40;78.90;23.50;101594.00;;;;5306676;26;89572;-67
2024/04/13 09:39:00;;;;;;;2.22;0.90;;;23.40;78.70;23.50;101588.00;;;;5306668;26;84949;-67
2024/04/13 09:41:27;;;;;;;1.10;0.73;;;23.30;78.00;23.50;101593.00;;;;5302712;26;114752;-67
2024/04/13 09:43:52;;;;;;;1.45;0.95;;;23.30;79.20;23.60;101585.00;;;;5310810;26;85324;-68
2024/04/13 09:46:19;;;;;;;4.90;0.93;;;23.40;79.10;23.70;101575.00;;;;5302002;26;107236;-67
2024/04/13 09:48:45;;;;;;;2.20;0.80;;;23.40;78.90;23.90;101579.00;;;;5286991;25;85803;-68
2024/04/13 09:51:11;;;;;;;0.77;0.70;;;23.50;78.90;24.10;101578.00;;;;5304501;26;86876;-67
2024/04/13 09:53:37;;;;;;;1.08;0.98;;;23.80;77.70;24.10;101569.00;;;;5303993;26;85342;-67
2024/04/13 09:56:04;;;;;;;1.42;1.02;;;23.90;76.70;24.20;101573.00;;;;5293516;25;87430;-67
2024/04/13 09:58:30;;;;;;;0.80;0.47;;;23.90;76.70;24.20;101567.00;;;;5303793;25;91126;-68
2024/04/13 10:01:01;;;;;;;1.63;0.95;;;24.00;77.20;24.20;101569.00;;;;5307213;26;113213;-67
2024/04/13 10:03:27;;;;;;;1.95;1.17;;;24.00;76.30;24.20;101569.00;;;;5289783;26;84225;-67
2024/04/13 10:05:55;;;;;;;1.83;0.80;;;23.90;76.20;24.10;101557.00;;;;5332085;26;84423;-67
2024/04/13 10:08:22;;;;;;;0.93;0.80;;;23.90;73.70;24.10;101565.00;;;;5340629;25;85884;-66
2024/04/13 10:10:50;;;;;;;1.20;0.75;;;23.90;73.90;24.10;101556.00;;;;5307873;26;106624;-67
2024/04/13 10:13:39;;;;;;;2.05;0.55;;;23.80;73.40;24.20;101550.00;;;;5307440;25;85776;-66
2024/04/13 10:16:06;;;;;;;0.63;0.50;;;23.80;73.70;24.40;101563.00;;;;5308994;25;84964;-66
2024/04/13 10:18:31;;;;;;;0.60;0.60;;;24.00;73.70;24.60;101554.00;;;;5340156;26;97994;-66
2024/04/13 10:21:02;;;;;;;1.33;0.80;;;24.10;72.80;24.80;101558.00;;;;5332254;25;115734;-67
2024/04/13 10:23:41;;;;;;;1.17;0.77;;;24.40;72.20;25.00;101550.00;;;;5339295;25;104285;-68
2024/04/13 10:26:06;;;;;;;1.58;1.02;;;24.60;71.40;24.90;101553.00;;;;5335139;25;84640;-68
2024/04/13 10:28:32;;;;;;;0.75;0.75;;;24.60;70.00;24.70;101550.00;;;;5336279;26;85093;-67
2024/04/13 10:30:58;;;;;;;1.25;1.15;;;24.50;69.60;24.50;101552.00;;;;5342613;26;85244;-67
2024/04/13 10:33:29;;;;;;;1.45;0.63;;;24.30;70.50;24.70;101540.00;;;;5337077;25;85610;-68
2024/04/13 10:36:09;;;;;;;3.42;0.90;;;24.40;71.90;24.80;101531.00;;;;5363289;25;84299;-66
2024/04/13 10:38:36;;;;;;;1.35;0.70;;;24.50;70.40;24.80;101526.00;;;;5338017;25;83830;-66
2024/04/13 10:41:03;;;;;;;1.30;0.80;;;24.50;70.20;24.90;101522.00;;;;5339838;25;85236;-67
2024/04/13 10:43:30;;;;;;;1.13;0.70;;;24.50;70.30;25.00;101521.00;;;;5334174;25;102625;-67